x

Caribbean Valley - 76 Nm Ssw Of Plymouth, Montserrat (42060) Wave Buoy

5:50am - Sat 23rd May 2015 All times are AST. -4 hours from GMT.

  • Sig Wave height 4.6ft
  • Swell Direction
  • Peak Period 5s
  • Average Period 5s
  • Wind
    22mph, 25mph gusts
  • Sea Temp 82°f
  • Air Temp 81°f
  • Sea Pressure 1018mb
  • Caribbean Valley - 76 Nm Ssw Of Plymouth, Montserrat
  • Caribbean Valley - 76 Nm Ssw Of Plymouth, Montserrat

More Historic Weather Station data

Upgrade to MSW Pro to gain access to the past 30 days of data for over 8000 Wavebouys and Weather Stations around the globe.

Join Pro

Comparision Forecast

View Surf forecast
   
Sat 05/23 5:50am 4.5ft 5s 5s 22 25 mph 1018mb 82f 81f
4:50am 4.5ft 5s 5s 22 27 mph 1017.3mb 82f 81f
3:50am 4.5ft 5s 5s 18 20 mph 1017.3mb 82f 81f
2:50am 4.5ft 5s 5s 18 22 mph 1017.4mb 82f 81f
1:50am 4.5ft 5s 5s 20 25 mph 1017.6mb 82f 81f
12:50am 4.5ft 5s 5s 20 25 mph 1018.1mb 82f 81f
Fri 05/22 11:50pm 4.5ft 6s 5s 20 25 mph 1018.8mb 82f 81f
10:50pm 5ft 5s 5s 20 25 mph 1019.1mb 82f 82f
9:50pm 4.5ft 5s 5s 20 25 mph 1018.9mb 82f 82f
8:50pm 4ft 5s 4s 18 22 mph 1018.6mb 82f 82f
7:50pm 4ft 5s 5s 18 20 mph 1018.5mb 82f 82f
6:50pm 4ft 5s 5s 11 13 mph 1018.2mb 82f 82f
5:50pm 3.5ft 5s 4s 11 13 mph 1017.6mb 82f 82f
4:50pm 3.5ft 5s 5s 16 18 mph 1017.4mb 82f 82f
3:50pm 3.5ft 5s 5s 16 18 mph 1017.5mb 82f 82f
2:50pm 3.5ft 5s 4s 13 16 mph 1017.9mb 82f 82f
1:50pm 3.5ft 5s 4s 13 16 mph 1018.2mb 82f 82f
12:50pm 4ft 5s 4s 16 18 mph 1018.6mb 82f 82f
11:50am 3.5ft 5s 4s 18 20 mph 1018.8mb 82f 82f
10:50am 3.5ft 5s 4s 18 22 mph 1019mb 82f 82f
9:50am 4ft 5s 4s 18 20 mph 1019.3mb 82f 82f
8:50am 3.5ft 5s 4s 18 22 mph 1019.1mb 82f 81f
7:50am 3.5ft 5s 4s 18 22 mph 1018.8mb 82f 81f
6:50am 3.5ft 5s 4s 18 22 mph 1017.9mb 82f 82f
5:50am 3.5ft 5s 4s 16 20 mph 1017.6mb 82f 81f
4:50am 3.5ft 5s 4s 18 20 mph 1016.9mb 82f 81f
3:50am 3.5ft 5s 5s 16 18 mph 1016.7mb 82f 81f
2:50am 3.5ft 6s 4s 11 16 mph 1017.1mb 82f 81f
1:50am 3ft 5s 4s 13 18 mph 1016.5mb 82f 81f
12:50am 3ft 6s 4s 11
mph
1017mb 82f 81f
Thu 05/21 11:50pm 2.5ft 6s 5s 11 16 mph 1017.3mb 82f 82f
10:50pm 3ft 6s 5s 11 13 mph 1017.1mb 82f 82f
9:50pm 3ft 5s 5s 11 13 mph 1017.1mb 82f 82f
8:50pm 3ft 5s 5s 13 16 mph 1016.5mb 82f 82f
7:50pm 2.5ft 4s 5s 9 11 mph 1016.1mb 82f 82f
6:50pm 2.5ft 4s 4s 7 9 mph 1015.7mb 82f 81f
5:50pm 3ft 5s 4s 9 11 mph 1015.3mb 82f 82f
4:50pm 3ft 5s 4s 11 13 mph 1014.9mb 82f 82f
3:50pm 3.5ft 5s 4s 13 16 mph 1015mb 82f 82f
2:50pm 3ft 4s 4s 13 16 mph 1015.4mb 82f 82f
1:50pm 2.5ft 4s 4s 16 18 mph 1015.8mb 82f 82f
12:50pm 2.5ft 5s 4s 16
mph
1016.2mb 82f 82f
11:50am 2.5ft 8s 5s 11 13 mph 1016.8mb 82f 82f
10:50am 2.5ft 4s 4s 13 16 mph 1016.8mb 82f 81f
9:50am 2.5ft 9s 4s 13 16 mph 1016.9mb 82f 81f
8:50am 3ft 4s 4s 13 16 mph 1016.7mb 82f 81f
7:50am 3ft 5s 4s 16 18 mph 1016.5mb 82f 81f
6:50am 3ft 5s 4s 13 16 mph 1016.1mb 82f 80f
5:50am 3ft 5s 4s 13
mph
1015.4mb 82f 80f
4:50am 3.5ft 5s 4s 13 16 mph 1014.9mb 82f 81f
3:50am 3.5ft 5s 4s 16 18 mph 1014.8mb 82f 81f
2:50am 3ft 4s 4s 16 20 mph 1014.6mb 82f 81f
1:50am 3ft 5s 4s 16 20 mph 1015mb 82f 81f
Wed 05/20 11:50pm 3ft 5s 5s 11 13 mph 1015.7mb 82f 81f
10:50pm 3ft 10s 4s 13 16 mph 1015.9mb 82f 81f
9:50pm 2.5ft 9s 5s 16 18 mph 1015.3mb 82f 82f
8:50pm 2.5ft 10s 5s 13 16 mph 1015.2mb 82f 82f
7:50pm 2.5ft 8s 5s 9 11 mph 1015mb 82f 81f
6:50pm 3ft 8s 5s 9
mph
1014.6mb 82f 81f
5:50pm 2.5ft 9s 5s 9 11 mph 1013.9mb 82f 81f
4:50pm 3ft 9s 5s 11
mph
1013.8mb 83f 82f
3:50pm 2.5ft 9s 5s 11 13 mph 1013.9mb 83f 82f
2:50pm 3ft 10s 5s 11 13 mph 1014.5mb 83f 82f
1:50pm 3ft 10s 5s 13 16 mph 1015.3mb 82f 81f
12:50pm 2.5ft 10s 5s 13 16 mph 1015.7mb 82f 81f
11:50am 2.5ft 10s 5s 13 16 mph 1016.1mb 82f 81f
10:50am 3ft 9s 5s 9 11 mph 1016.5mb 82f 81f
9:50am 2.5ft 9s 5s 9
mph
1016.5mb 82f 81f
8:50am 2.5ft 10s 5s 13 16 mph 1016.1mb 82f 82f
7:50am 3ft 10s 6s 9
mph
1015.8mb 82f 81f
6:50am 2.5ft 10s 6s 7
mph
1015.3mb 82f 81f
5:50am 2.5ft 10s 6s 4
mph
1014.9mb 82f 80f
4:50am 2.5ft 10s 6s 4 7 mph 1014.4mb 82f 80f
3:50am 2.5ft 10s 6s 4 7 mph 1014.4mb 82f 80f
2:50am 2.5ft 9s 6s 7 9 mph 1014.5mb 82f 80f
1:50am 2.5ft 8s 6s 9
mph
1015.1mb 82f 80f
12:50am 2.5ft 10s 6s 7 9 mph 1015.8mb 82f 80f
Tue 05/19 11:50pm 2.5ft 9s 6s 9
mph
1016.1mb 82f 81f
10:50pm 2.5ft 11s 6s 7
mph
1016.6mb 82f 81f
9:50pm 3ft 8s 6s 4 7 mph 1016.3mb 82f 81f
8:50pm 2.5ft 9s 5s 4 7 mph 1015.9mb 82f 81f
7:50pm 3ft 10s 6s 4 7 mph 1015.5mb 82f 81f
6:50pm 3ft 9s 5s 4 7 mph 1015.2mb 82f 81f
5:50pm 3.5ft 8s 6s 4 7 mph 1014.9mb 83f 82f
4:50pm 3ft 9s 6s 7 9 mph 1014.6mb 83f 82f
3:50pm 3ft 8s 5s 9 11 mph 1014.8mb 83f 82f
2:50pm 3ft 9s 5s 9 11 mph 1015.1mb 83f 82f
1:50pm 2.5ft 7s 5s 9 11 mph 1015.7mb 82f 81f
12:50pm 2.5ft 8s 5s 9 11 mph 1016.3mb 82f 81f
11:50am 3ft 9s 5s 11 13 mph 1016.5mb 82f 81f
10:50am 2.5ft 10s 5s 11 13 mph 1016.7mb 82f 81f